sensor_id;sensor_type;location;lat;lon;timestamp;P1;durP1;ratioP1;P2;durP2;ratioP2
80677;SDS011;70042;52.494;5.502;2023-08-06T00:02:20;1.90;;;1.70;;
80677;SDS011;70042;52.494;5.502;2023-08-06T00:04:45;2.38;;;1.83;;
80677;SDS011;70042;52.494;5.502;2023-08-06T00:07:11;2.38;;;1.85;;
80677;SDS011;70042;52.494;5.502;2023-08-06T00:09:36;3.25;;;2.05;;
80677;SDS011;70042;52.494;5.502;2023-08-06T00:14:27;3.63;;;2.05;;
80677;SDS011;70042;52.494;5.502;2023-08-06T00:16:52;3.38;;;2.17;;
80677;SDS011;70042;52.494;5.502;2023-08-06T00:19:21;2.92;;;1.92;;
80677;SDS011;70042;52.494;5.502;2023-08-06T00:21:49;2.67;;;1.80;;
80677;SDS011;70042;52.494;5.502;2023-08-06T00:24:36;2.88;;;2.03;;
80677;SDS011;70042;52.494;5.502;2023-08-06T00:27:02;3.33;;;2.10;;
80677;SDS011;70042;52.494;5.502;2023-08-06T00:41:40;2.50;;;1.70;;
80677;SDS011;70042;52.494;5.502;2023-08-06T00:44:15;2.10;;;1.90;;
80677;SDS011;70042;52.494;5.502;2023-08-06T00:49:50;3.83;;;2.10;;
80677;SDS011;70042;52.494;5.502;2023-08-06T00:52:53;3.08;;;2.33;;
80677;SDS011;70042;52.494;5.502;2023-08-06T00:59:00;3.42;;;2.08;;
80677;SDS011;70042;52.494;5.502;2023-08-06T01:01:36;2.67;;;2.33;;
80677;SDS011;70042;52.494;5.502;2023-08-06T01:04:24;3.08;;;2.05;;
80677;SDS011;70042;52.494;5.502;2023-08-06T01:07:06;3.47;;;1.90;;
80677;SDS011;70042;52.494;5.502;2023-08-06T01:15:37;3.63;;;2.13;;
80677;SDS011;70042;52.494;5.502;2023-08-06T01:31:47;5.60;;;2.10;;
80677;SDS011;70042;52.494;5.502;2023-08-06T01:37:24;2.13;;;1.75;;
80677;SDS011;70042;52.494;5.502;2023-08-06T01:46:20;2.58;;;1.90;;
80677;SDS011;70042;52.494;5.502;2023-08-06T02:19:26;2.13;;;1.60;;
80677;SDS011;70042;52.494;5.502;2023-08-06T03:01:17;2.50;;;1.83;;
80677;SDS011;70042;52.494;5.502;2023-08-06T03:08:36;2.33;;;1.58;;
80677;SDS011;70042;52.494;5.502;2023-08-06T03:11:41;2.15;;;1.67;;
80677;SDS011;70042;52.494;5.502;2023-08-06T03:22:12;2.22;;;1.63;;
80677;SDS011;70042;52.494;5.502;2023-08-06T03:32:14;2.28;;;1.90;;
80677;SDS011;70042;52.494;5.502;2023-08-06T03:38:43;2.00;;;1.70;;
80677;SDS011;70042;52.494;5.502;2023-08-06T03:44:30;1.92;;;1.60;;
80677;SDS011;70042;52.494;5.502;2023-08-06T03:47:07;2.25;;;1.58;;
80677;SDS011;70042;52.494;5.502;2023-08-06T03:52:37;2.03;;;1.75;;
80677;SDS011;70042;52.494;5.502;2023-08-06T04:13:01;2.33;;;1.52;;
80677;SDS011;70042;52.494;5.502;2023-08-06T04:15:55;2.35;;;1.73;;
80677;SDS011;70042;52.494;5.502;2023-08-06T04:19:23;1.92;;;1.55;;
80677;SDS011;70042;52.494;5.502;2023-08-06T04:21:51;2.55;;;1.45;;
80677;SDS011;70042;52.494;5.502;2023-08-06T04:32:18;1.90;;;1.50;;
80677;SDS011;70042;52.494;5.502;2023-08-06T04:38:54;2.15;;;1.40;;
80677;SDS011;70042;52.494;5.502;2023-08-06T04:47:58;2.83;;;1.52;;
80677;SDS011;70042;52.494;5.502;2023-08-06T04:51:20;2.30;;;1.40;;
80677;SDS011;70042;52.494;5.502;2023-08-06T04:54:34;1.73;;;1.42;;
80677;SDS011;70042;52.494;5.502;2023-08-06T04:57:53;2.08;;;1.30;;
80677;SDS011;70042;52.494;5.502;2023-08-06T05:11:09;1.75;;;1.23;;
80677;SDS011;70042;52.494;5.502;2023-08-06T05:20:36;1.88;;;1.38;;
80677;SDS011;70042;52.494;5.502;2023-08-06T05:27:01;1.95;;;1.52;;
80677;SDS011;70042;52.494;5.502;2023-08-06T05:30:11;2.28;;;1.60;;
80677;SDS011;70042;52.494;5.502;2023-08-06T05:33:12;1.70;;;1.35;;
80677;SDS011;70042;52.494;5.502;2023-08-06T05:35:56;1.75;;;1.48;;
80677;SDS011;70042;52.494;5.502;2023-08-06T05:47:49;1.60;;;1.50;;
80677;SDS011;70042;52.494;5.502;2023-08-06T05:50:22;2.95;;;1.50;;
80677;SDS011;70042;52.494;5.502;2023-08-06T05:52:48;1.73;;;1.20;;
80677;SDS011;70042;52.494;5.502;2023-08-06T05:55:16;2.17;;;1.55;;
80677;SDS011;70042;52.494;5.502;2023-08-06T06:01:11;1.73;;;1.30;;
80677;SDS011;70042;52.494;5.502;2023-08-06T06:03:54;1.67;;;1.10;;
80677;SDS011;70042;52.494;5.502;2023-08-06T06:06:49;1.50;;;1.20;;
80677;SDS011;70042;52.494;5.502;2023-08-06T06:09:14;2.22;;;1.48;;
80677;SDS011;70042;52.494;5.502;2023-08-06T06:11:40;1.60;;;1.38;;
80677;SDS011;70042;52.494;5.502;2023-08-06T06:14:05;1.65;;;1.45;;
80677;SDS011;70042;52.494;5.502;2023-08-06T06:16:30;2.63;;;1.55;;
80677;SDS011;70042;52.494;5.502;2023-08-06T06:21:22;2.40;;;1.30;;
80677;SDS011;70042;52.494;5.502;2023-08-06T06:23:48;1.90;;;1.52;;
80677;SDS011;70042;52.494;5.502;2023-08-06T06:26:14;1.60;;;1.40;;
80677;SDS011;70042;52.494;5.502;2023-08-06T06:28:39;1.42;;;1.20;;
80677;SDS011;70042;52.494;5.502;2023-08-06T06:33:30;1.70;;;1.40;;
80677;SDS011;70042;52.494;5.502;2023-08-06T06:35:55;2.58;;;1.90;;
80677;SDS011;70042;52.494;5.502;2023-08-06T06:38:23;2.08;;;1.63;;
80677;SDS011;70042;52.494;5.502;2023-08-06T06:40:55;2.17;;;1.58;;
80677;SDS011;70042;52.494;5.502;2023-08-06T06:43:22;1.70;;;1.55;;
80677;SDS011;70042;52.494;5.502;2023-08-06T06:45:52;1.63;;;1.25;;
80677;SDS011;70042;52.494;5.502;2023-08-06T06:48:27;1.80;;;1.30;;
80677;SDS011;70042;52.494;5.502;2023-08-06T06:50:53;1.88;;;1.33;;
80677;SDS011;70042;52.494;5.502;2023-08-06T06:53:19;1.75;;;1.25;;
80677;SDS011;70042;52.494;5.502;2023-08-06T06:55:45;2.05;;;1.30;;
80677;SDS011;70042;52.494;5.502;2023-08-06T06:58:13;1.88;;;1.35;;
80677;SDS011;70042;52.494;5.502;2023-08-06T07:00:39;1.30;;;1.10;;
80677;SDS011;70042;52.494;5.502;2023-08-06T07:03:06;1.67;;;1.40;;
80677;SDS011;70042;52.494;5.502;2023-08-06T07:05:32;1.88;;;1.20;;
80677;SDS011;70042;52.494;5.502;2023-08-06T07:07:57;2.15;;;1.63;;
80677;SDS011;70042;52.494;5.502;2023-08-06T07:10:23;1.70;;;1.60;;
80677;SDS011;70042;52.494;5.502;2023-08-06T07:12:48;1.48;;;1.30;;
80677;SDS011;70042;52.494;5.502;2023-08-06T07:15:14;1.70;;;1.50;;
80677;SDS011;70042;52.494;5.502;2023-08-06T07:17:39;2.33;;;1.55;;
80677;SDS011;70042;52.494;5.502;2023-08-06T07:20:05;1.73;;;1.50;;
80677;SDS011;70042;52.494;5.502;2023-08-06T07:22:38;1.80;;;1.45;;
80677;SDS011;70042;52.494;5.502;2023-08-06T07:25:04;2.38;;;1.73;;
80677;SDS011;70042;52.494;5.502;2023-08-06T07:27:32;1.73;;;1.23;;
80677;SDS011;70042;52.494;5.502;2023-08-06T07:30:00;1.70;;;1.27;;
80677;SDS011;70042;52.494;5.502;2023-08-06T07:34:53;1.92;;;1.58;;
80677;SDS011;70042;52.494;5.502;2023-08-06T07:37:24;1.60;;;1.50;;
80677;SDS011;70042;52.494;5.502;2023-08-06T07:39:50;1.70;;;1.50;;
80677;SDS011;70042;52.494;5.502;2023-08-06T07:42:15;1.77;;;1.42;;
80677;SDS011;70042;52.494;5.502;2023-08-06T07:44:41;1.73;;;1.13;;
80677;SDS011;70042;52.494;5.502;2023-08-06T07:47:06;1.85;;;1.40;;
80677;SDS011;70042;52.494;5.502;2023-08-06T07:49:34;1.80;;;1.40;;
80677;SDS011;70042;52.494;5.502;2023-08-06T07:51:59;1.98;;;1.77;;
80677;SDS011;70042;52.494;5.502;2023-08-06T07:54:25;1.63;;;1.30;;
80677;SDS011;70042;52.494;5.502;2023-08-06T07:56:50;2.22;;;1.40;;
80677;SDS011;70042;52.494;5.502;2023-08-06T08:01:41;2.30;;;1.77;;
80677;SDS011;70042;52.494;5.502;2023-08-06T08:06:32;1.63;;;1.37;;
80677;SDS011;70042;52.494;5.502;2023-08-06T08:08:58;1.50;;;1.40;;
80677;SDS011;70042;52.494;5.502;2023-08-06T08:11:31;1.80;;;1.50;;
80677;SDS011;70042;52.494;5.502;2023-08-06T08:14:25;1.88;;;1.63;;
80677;SDS011;70042;52.494;5.502;2023-08-06T08:16:51;2.20;;;1.58;;
80677;SDS011;70042;52.494;5.502;2023-08-06T08:19:16;2.00;;;1.67;;
80677;SDS011;70042;52.494;5.502;2023-08-06T08:21:41;2.20;;;1.83;;
80677;SDS011;70042;52.494;5.502;2023-08-06T08:26:33;2.45;;;1.50;;
80677;SDS011;70042;52.494;5.502;2023-08-06T08:31:26;1.75;;;1.50;;
80677;SDS011;70042;52.494;5.502;2023-08-06T08:33:53;1.73;;;1.50;;
80677;SDS011;70042;52.494;5.502;2023-08-06T08:36:19;1.70;;;1.40;;
80677;SDS011;70042;52.494;5.502;2023-08-06T08:41:10;2.50;;;1.58;;
80677;SDS011;70042;52.494;5.502;2023-08-06T08:46:01;1.83;;;1.63;;
80677;SDS011;70042;52.494;5.502;2023-08-06T08:48:29;2.38;;;1.80;;
80677;SDS011;70042;52.494;5.502;2023-08-06T08:51:16;1.92;;;1.50;;
80677;SDS011;70042;52.494;5.502;2023-08-06T08:54:11;1.80;;;1.58;;
80677;SDS011;70042;52.494;5.502;2023-08-06T08:56:39;2.38;;;1.60;;
80677;SDS011;70042;52.494;5.502;2023-08-06T08:59:04;1.92;;;1.70;;
80677;SDS011;70042;52.494;5.502;2023-08-06T09:03:55;2.00;;;1.60;;
80677;SDS011;70042;52.494;5.502;2023-08-06T09:06:26;2.28;;;1.98;;
80677;SDS011;70042;52.494;5.502;2023-08-06T09:08:59;1.55;;;1.38;;
80677;SDS011;70042;52.494;5.502;2023-08-06T09:11:31;1.88;;;1.67;;
80677;SDS011;70042;52.494;5.502;2023-08-06T09:14:05;1.88;;;1.70;;
80677;SDS011;70042;52.494;5.502;2023-08-06T09:16:36;1.80;;;1.63;;
80677;SDS011;70042;52.494;5.502;2023-08-06T09:19:11;1.58;;;1.40;;
80677;SDS011;70042;52.494;5.502;2023-08-06T09:21:43;1.98;;;1.60;;
80677;SDS011;70042;52.494;5.502;2023-08-06T09:24:09;2.25;;;1.80;;
80677;SDS011;70042;52.494;5.502;2023-08-06T09:26:39;2.78;;;1.80;;
80677;SDS011;70042;52.494;5.502;2023-08-06T09:29:06;1.85;;;1.50;;
80677;SDS011;70042;52.494;5.502;2023-08-06T09:31:42;2.58;;;1.88;;
80677;SDS011;70042;52.494;5.502;2023-08-06T09:34:19;1.80;;;1.58;;
80677;SDS011;70042;52.494;5.502;2023-08-06T09:36:49;1.77;;;1.42;;
80677;SDS011;70042;52.494;5.502;2023-08-06T09:39:16;1.63;;;1.52;;
80677;SDS011;70042;52.494;5.502;2023-08-06T09:41:46;2.00;;;1.60;;
80677;SDS011;70042;52.494;5.502;2023-08-06T09:44:19;2.00;;;1.65;;
80677;SDS011;70042;52.494;5.502;2023-08-06T09:46:49;2.03;;;1.50;;
80677;SDS011;70042;52.494;5.502;2023-08-06T09:49:19;1.92;;;1.70;;
80677;SDS011;70042;52.494;5.502;2023-08-06T09:51:46;1.83;;;1.63;;
80677;SDS011;70042;52.494;5.502;2023-08-06T09:54:15;2.10;;;1.70;;
80677;SDS011;70042;52.494;5.502;2023-08-06T09:59:07;1.70;;;1.48;;
80677;SDS011;70042;52.494;5.502;2023-08-06T10:03:59;2.20;;;1.63;;
80677;SDS011;70042;52.494;5.502;2023-08-06T10:06:26;1.70;;;1.42;;
80677;SDS011;70042;52.494;5.502;2023-08-06T10:08:53;1.48;;;1.38;;
80677;SDS011;70042;52.494;5.502;2023-08-06T10:11:18;1.90;;;1.67;;
80677;SDS011;70042;52.494;5.502;2023-08-06T10:13:47;2.03;;;1.50;;
80677;SDS011;70042;52.494;5.502;2023-08-06T10:16:13;2.55;;;1.83;;
80677;SDS011;70042;52.494;5.502;2023-08-06T10:21:09;2.17;;;1.77;;
80677;SDS011;70042;52.494;5.502;2023-08-06T10:23:35;1.70;;;1.60;;
80677;SDS011;70042;52.494;5.502;2023-08-06T10:26:03;2.45;;;1.77;;
80677;SDS011;70042;52.494;5.502;2023-08-06T10:28:38;2.20;;;1.75;;
80677;SDS011;70042;52.494;5.502;2023-08-06T10:31:05;2.15;;;1.60;;
80677;SDS011;70042;52.494;5.502;2023-08-06T10:33:41;1.98;;;1.60;;
80677;SDS011;70042;52.494;5.502;2023-08-06T10:36:12;3.75;;;1.80;;
80677;SDS011;70042;52.494;5.502;2023-08-06T10:38:44;2.55;;;1.90;;
80677;SDS011;70042;52.494;5.502;2023-08-06T10:44:04;7.15;;;3.22;;
80677;SDS011;70042;52.494;5.502;2023-08-06T10:46:32;206.50;;;56.67;;
80677;SDS011;70042;52.494;5.502;2023-08-06T10:48:58;128.02;;;39.45;;
80677;SDS011;70042;52.494;5.502;2023-08-06T10:51:23;85.10;;;28.45;;
80677;SDS011;70042;52.494;5.502;2023-08-06T10:56:15;110.05;;;35.17;;
80677;SDS011;70042;52.494;5.502;2023-08-06T10:58:47;78.20;;;26.83;;
80677;SDS011;70042;52.494;5.502;2023-08-06T11:01:13;66.03;;;21.67;;
80677;SDS011;70042;52.494;5.502;2023-08-06T11:03:40;60.67;;;21.05;;
80677;SDS011;70042;52.494;5.502;2023-08-06T11:06:06;57.92;;;21.75;;
80677;SDS011;70042;52.494;5.502;2023-08-06T11:08:36;59.75;;;19.08;;
80677;SDS011;70042;52.494;5.502;2023-08-06T11:11:12;55.85;;;18.17;;
80677;SDS011;70042;52.494;5.502;2023-08-06T11:13:45;52.88;;;17.42;;
80677;SDS011;70042;52.494;5.502;2023-08-06T11:16:14;45.60;;;15.38;;
80677;SDS011;70042;52.494;5.502;2023-08-06T11:18:41;45.13;;;16.00;;
80677;SDS011;70042;52.494;5.502;2023-08-06T11:21:08;50.47;;;17.23;;
80677;SDS011;70042;52.494;5.502;2023-08-06T11:23:34;38.97;;;13.68;;
80677;SDS011;70042;52.494;5.502;2023-08-06T11:26:01;38.92;;;13.40;;
80677;SDS011;70042;52.494;5.502;2023-08-06T11:28:26;37.05;;;13.32;;
80677;SDS011;70042;52.494;5.502;2023-08-06T11:33:21;29.80;;;11.93;;
80677;SDS011;70042;52.494;5.502;2023-08-06T11:35:50;37.03;;;12.88;;
80677;SDS011;70042;52.494;5.502;2023-08-06T11:38:16;30.73;;;11.15;;
80677;SDS011;70042;52.494;5.502;2023-08-06T11:43:08;28.67;;;9.75;;
80677;SDS011;70042;52.494;5.502;2023-08-06T11:45:35;26.13;;;10.27;;
80677;SDS011;70042;52.494;5.502;2023-08-06T11:48:01;32.63;;;10.10;;
80677;SDS011;70042;52.494;5.502;2023-08-06T11:50:27;35.17;;;9.68;;
80677;SDS011;70042;52.494;5.502;2023-08-06T11:52:56;26.10;;;9.32;;
80677;SDS011;70042;52.494;5.502;2023-08-06T11:55:24;28.45;;;9.15;;
80677;SDS011;70042;52.494;5.502;2023-08-06T11:57:50;27.05;;;8.18;;
80677;SDS011;70042;52.494;5.502;2023-08-06T12:00:22;26.08;;;8.82;;
80677;SDS011;70042;52.494;5.502;2023-08-06T12:02:54;25.15;;;8.98;;
80677;SDS011;70042;52.494;5.502;2023-08-06T12:05:22;26.35;;;9.65;;
80677;SDS011;70042;52.494;5.502;2023-08-06T12:07:50;27.10;;;8.93;;
80677;SDS011;70042;52.494;5.502;2023-08-06T12:10:17;28.85;;;8.88;;
80677;SDS011;70042;52.494;5.502;2023-08-06T12:12:44;18.88;;;8.25;;
80677;SDS011;70042;52.494;5.502;2023-08-06T12:15:10;28.10;;;8.68;;
80677;SDS011;70042;52.494;5.502;2023-08-06T12:17:36;21.38;;;8.48;;
80677;SDS011;70042;52.494;5.502;2023-08-06T12:20:03;23.77;;;9.18;;
80677;SDS011;70042;52.494;5.502;2023-08-06T12:22:34;21.83;;;8.55;;
80677;SDS011;70042;52.494;5.502;2023-08-06T12:25:01;30.20;;;8.40;;
80677;SDS011;70042;52.494;5.502;2023-08-06T12:27:36;19.42;;;8.15;;
80677;SDS011;70042;52.494;5.502;2023-08-06T12:30:13;21.58;;;7.75;;
80677;SDS011;70042;52.494;5.502;2023-08-06T12:32:42;19.92;;;8.38;;
80677;SDS011;70042;52.494;5.502;2023-08-06T12:35:27;27.42;;;8.45;;
80677;SDS011;70042;52.494;5.502;2023-08-06T12:37:56;24.20;;;8.07;;
80677;SDS011;70042;52.494;5.502;2023-08-06T12:40:22;23.67;;;7.88;;
80677;SDS011;70042;52.494;5.502;2023-08-06T12:42:47;25.45;;;7.80;;
80677;SDS011;70042;52.494;5.502;2023-08-06T12:47:39;16.98;;;6.53;;
80677;SDS011;70042;52.494;5.502;2023-08-06T12:52:30;22.40;;;7.63;;
80677;SDS011;70042;52.494;5.502;2023-08-06T12:54:55;20.20;;;7.07;;
80677;SDS011;70042;52.494;5.502;2023-08-06T12:59:46;16.73;;;6.40;;
80677;SDS011;70042;52.494;5.502;2023-08-06T13:02:13;16.48;;;6.65;;
80677;SDS011;70042;52.494;5.502;2023-08-06T13:04:38;20.20;;;6.80;;
80677;SDS011;70042;52.494;5.502;2023-08-06T13:09:32;21.83;;;6.28;;
80677;SDS011;70042;52.494;5.502;2023-08-06T13:15:01;18.52;;;5.82;;
80677;SDS011;70042;52.494;5.502;2023-08-06T13:17:26;18.48;;;6.22;;
80677;SDS011;70042;52.494;5.502;2023-08-06T13:19:52;15.00;;;5.13;;
80677;SDS011;70042;52.494;5.502;2023-08-06T13:22:17;18.80;;;6.20;;
80677;SDS011;70042;52.494;5.502;2023-08-06T13:24:42;18.73;;;6.05;;
80677;SDS011;70042;52.494;5.502;2023-08-06T13:27:08;17.88;;;6.70;;
80677;SDS011;70042;52.494;5.502;2023-08-06T13:29:34;14.90;;;5.20;;
80677;SDS011;70042;52.494;5.502;2023-08-06T13:32:00;14.68;;;5.07;;
80677;SDS011;70042;52.494;5.502;2023-08-06T13:36:50;14.60;;;5.23;;
80677;SDS011;70042;52.494;5.502;2023-08-06T13:41:42;10.95;;;5.07;;
80677;SDS011;70042;52.494;5.502;2023-08-06T13:44:08;12.80;;;5.45;;
80677;SDS011;70042;52.494;5.502;2023-08-06T13:48:58;16.13;;;5.60;;
80677;SDS011;70042;52.494;5.502;2023-08-06T13:51:24;12.23;;;4.65;;
80677;SDS011;70042;52.494;5.502;2023-08-06T13:53:49;9.73;;;4.55;;
80677;SDS011;70042;52.494;5.502;2023-08-06T13:56:17;9.52;;;4.30;;
80677;SDS011;70042;52.494;5.502;2023-08-06T13:58:42;13.85;;;5.20;;
80677;SDS011;70042;52.494;5.502;2023-08-06T14:01:09;14.68;;;4.88;;
80677;SDS011;70042;52.494;5.502;2023-08-06T14:03:36;11.05;;;4.35;;
80677;SDS011;70042;52.494;5.502;2023-08-06T14:06:01;13.07;;;4.60;;
80677;SDS011;70042;52.494;5.502;2023-08-06T14:08:27;13.48;;;4.78;;
80677;SDS011;70042;52.494;5.502;2023-08-06T14:13:18;11.95;;;4.43;;
80677;SDS011;70042;52.494;5.502;2023-08-06T14:18:12;18.23;;;4.43;;
80677;SDS011;70042;52.494;5.502;2023-08-06T14:20:38;14.43;;;4.47;;
80677;SDS011;70042;52.494;5.502;2023-08-06T14:23:04;11.68;;;4.18;;
80677;SDS011;70042;52.494;5.502;2023-08-06T14:25:29;13.38;;;3.85;;
80677;SDS011;70042;52.494;5.502;2023-08-06T14:27:55;10.23;;;4.45;;
80677;SDS011;70042;52.494;5.502;2023-08-06T14:32:46;12.35;;;4.50;;
80677;SDS011;70042;52.494;5.502;2023-08-06T14:37:36;10.67;;;4.07;;
80677;SDS011;70042;52.494;5.502;2023-08-06T14:40:02;12.68;;;4.20;;
80677;SDS011;70042;52.494;5.502;2023-08-06T14:42:28;11.60;;;4.38;;
80677;SDS011;70042;52.494;5.502;2023-08-06T14:47:18;11.60;;;3.97;;
80677;SDS011;70042;52.494;5.502;2023-08-06T14:49:44;8.20;;;3.65;;
80677;SDS011;70042;52.494;5.502;2023-08-06T14:54:41;10.00;;;3.67;;
80677;SDS011;70042;52.494;5.502;2023-08-06T14:57:06;8.98;;;3.42;;
80677;SDS011;70042;52.494;5.502;2023-08-06T14:59:33;8.82;;;3.45;;
80677;SDS011;70042;52.494;5.502;2023-08-06T15:01:58;10.35;;;4.03;;
80677;SDS011;70042;52.494;5.502;2023-08-06T15:06:49;10.53;;;3.50;;
80677;SDS011;70042;52.494;5.502;2023-08-06T15:09:15;8.43;;;3.65;;
80677;SDS011;70042;52.494;5.502;2023-08-06T15:11:40;12.30;;;4.10;;
80677;SDS011;70042;52.494;5.502;2023-08-06T15:14:06;10.10;;;3.50;;
80677;SDS011;70042;52.494;5.502;2023-08-06T15:16:32;7.82;;;3.42;;
80677;SDS011;70042;52.494;5.502;2023-08-06T15:19:01;9.30;;;3.20;;
80677;SDS011;70042;52.494;5.502;2023-08-06T15:21:27;7.53;;;3.45;;
80677;SDS011;70042;52.494;5.502;2023-08-06T15:23:53;7.88;;;3.25;;
80677;SDS011;70042;52.494;5.502;2023-08-06T15:26:20;9.13;;;3.20;;
80677;SDS011;70042;52.494;5.502;2023-08-06T15:28:50;11.25;;;3.83;;
80677;SDS011;70042;52.494;5.502;2023-08-06T15:31:19;9.23;;;3.60;;
80677;SDS011;70042;52.494;5.502;2023-08-06T15:33:45;7.60;;;3.55;;
80677;SDS011;70042;52.494;5.502;2023-08-06T15:37:11;9.77;;;3.15;;
80677;SDS011;70042;52.494;5.502;2023-08-06T15:39:39;8.93;;;3.33;;
80677;SDS011;70042;52.494;5.502;2023-08-06T15:42:05;7.70;;;3.38;;
80677;SDS011;70042;52.494;5.502;2023-08-06T15:44:31;7.68;;;2.72;;
80677;SDS011;70042;52.494;5.502;2023-08-06T15:49:21;7.60;;;2.87;;
80677;SDS011;70042;52.494;5.502;2023-08-06T15:51:50;6.15;;;2.80;;
80677;SDS011;70042;52.494;5.502;2023-08-06T15:54:17;7.47;;;2.78;;
80677;SDS011;70042;52.494;5.502;2023-08-06T15:56:43;8.68;;;2.67;;
80677;SDS011;70042;52.494;5.502;2023-08-06T16:01:52;6.65;;;2.72;;
80677;SDS011;70042;52.494;5.502;2023-08-06T16:04:18;9.15;;;3.33;;
80677;SDS011;70042;52.494;5.502;2023-08-06T16:09:09;4.55;;;2.17;;
80677;SDS011;70042;52.494;5.502;2023-08-06T16:11:35;7.20;;;2.70;;
80677;SDS011;70042;52.494;5.502;2023-08-06T16:14:00;9.60;;;3.08;;
80677;SDS011;70042;52.494;5.502;2023-08-06T16:18:51;11.75;;;2.50;;
80677;SDS011;70042;52.494;5.502;2023-08-06T16:23:41;6.90;;;2.17;;
80677;SDS011;70042;52.494;5.502;2023-08-06T16:26:07;7.32;;;2.22;;
80677;SDS011;70042;52.494;5.502;2023-08-06T16:30:57;7.87;;;2.67;;
80677;SDS011;70042;52.494;5.502;2023-08-06T16:35:48;8.47;;;2.43;;
80677;SDS011;70042;52.494;5.502;2023-08-06T16:38:14;6.43;;;2.20;;
80677;SDS011;70042;52.494;5.502;2023-08-06T16:40:40;6.72;;;2.38;;
80677;SDS011;70042;52.494;5.502;2023-08-06T16:43:06;6.55;;;2.97;;
80677;SDS011;70042;52.494;5.502;2023-08-06T16:45:31;4.90;;;2.30;;
80677;SDS011;70042;52.494;5.502;2023-08-06T16:48:02;6.53;;;2.00;;
80677;SDS011;70042;52.494;5.502;2023-08-06T16:50:29;8.65;;;2.67;;
80677;SDS011;70042;52.494;5.502;2023-08-06T16:52:57;7.82;;;2.38;;
80677;SDS011;70042;52.494;5.502;2023-08-06T16:55:22;6.43;;;2.20;;
80677;SDS011;70042;52.494;5.502;2023-08-06T16:57:48;6.10;;;2.25;;
80677;SDS011;70042;52.494;5.502;2023-08-06T17:00:13;7.68;;;2.38;;
80677;SDS011;70042;52.494;5.502;2023-08-06T17:02:39;4.80;;;2.08;;
80677;SDS011;70042;52.494;5.502;2023-08-06T17:05:04;6.78;;;2.35;;
80677;SDS011;70042;52.494;5.502;2023-08-06T17:07:30;5.50;;;2.50;;
80677;SDS011;70042;52.494;5.502;2023-08-06T17:09:56;6.80;;;2.00;;
80677;SDS011;70042;52.494;5.502;2023-08-06T17:12:22;7.18;;;2.17;;
80677;SDS011;70042;52.494;5.502;2023-08-06T17:14:47;5.28;;;1.95;;
80677;SDS011;70042;52.494;5.502;2023-08-06T17:19:38;8.00;;;2.10;;
80677;SDS011;70042;52.494;5.502;2023-08-06T17:22:04;8.25;;;2.35;;
80677;SDS011;70042;52.494;5.502;2023-08-06T17:24:29;5.38;;;2.05;;
80677;SDS011;70042;52.494;5.502;2023-08-06T17:29:23;5.32;;;1.92;;
80677;SDS011;70042;52.494;5.502;2023-08-06T17:31:50;5.20;;;1.80;;
80677;SDS011;70042;52.494;5.502;2023-08-06T17:36:42;3.13;;;1.60;;
80677;SDS011;70042;52.494;5.502;2023-08-06T17:39:07;6.32;;;1.92;;
80677;SDS011;70042;52.494;5.502;2023-08-06T17:47:08;3.20;;;1.50;;
80677;SDS011;70042;52.494;5.502;2023-08-06T17:49:34;4.97;;;1.90;;
80677;SDS011;70042;52.494;5.502;2023-08-06T17:54:25;3.25;;;1.27;;
80677;SDS011;70042;52.494;5.502;2023-08-06T17:56:50;6.20;;;1.95;;
80677;SDS011;70042;52.494;5.502;2023-08-06T17:59:16;5.32;;;1.42;;
80677;SDS011;70042;52.494;5.502;2023-08-06T18:01:42;5.43;;;1.58;;
80677;SDS011;70042;52.494;5.502;2023-08-06T18:04:07;6.95;;;1.65;;
80677;SDS011;70042;52.494;5.502;2023-08-06T18:08:59;9.40;;;1.60;;
80677;SDS011;70042;52.494;5.502;2023-08-06T18:11:24;3.22;;;1.30;;
80677;SDS011;70042;52.494;5.502;2023-08-06T18:13:49;4.43;;;1.63;;
80677;SDS011;70042;52.494;5.502;2023-08-06T18:16:15;5.40;;;1.60;;
80677;SDS011;70042;52.494;5.502;2023-08-06T18:18:40;2.28;;;1.48;;
80677;SDS011;70042;52.494;5.502;2023-08-06T18:21:06;4.05;;;1.52;;
80677;SDS011;70042;52.494;5.502;2023-08-06T18:23:35;4.45;;;1.30;;
80677;SDS011;70042;52.494;5.502;2023-08-06T18:26:02;5.43;;;1.30;;
80677;SDS011;70042;52.494;5.502;2023-08-06T18:28:28;5.13;;;1.25;;
80677;SDS011;70042;52.494;5.502;2023-08-06T18:30:54;3.53;;;1.10;;
80677;SDS011;70042;52.494;5.502;2023-08-06T18:33:20;5.63;;;1.63;;
80677;SDS011;70042;52.494;5.502;2023-08-06T18:35:46;3.65;;;1.38;;
80677;SDS011;70042;52.494;5.502;2023-08-06T18:38:11;3.13;;;1.15;;
80677;SDS011;70042;52.494;5.502;2023-08-06T18:40:37;4.55;;;1.52;;
80677;SDS011;70042;52.494;5.502;2023-08-06T18:43:02;4.40;;;1.67;;
80677;SDS011;70042;52.494;5.502;2023-08-06T18:45:28;5.18;;;1.42;;
80677;SDS011;70042;52.494;5.502;2023-08-06T18:47:53;5.85;;;1.30;;
80677;SDS011;70042;52.494;5.502;2023-08-06T18:50:19;6.07;;;1.15;;
80677;SDS011;70042;52.494;5.502;2023-08-06T18:52:44;4.97;;;1.40;;
80677;SDS011;70042;52.494;5.502;2023-08-06T18:55:10;4.93;;;1.60;;
80677;SDS011;70042;52.494;5.502;2023-08-06T19:00:01;6.43;;;1.50;;
80677;SDS011;70042;52.494;5.502;2023-08-06T19:02:29;2.30;;;1.30;;
80677;SDS011;70042;52.494;5.502;2023-08-06T19:04:55;4.18;;;1.52;;
80677;SDS011;70042;52.494;5.502;2023-08-06T19:07:23;4.80;;;1.13;;
80677;SDS011;70042;52.494;5.502;2023-08-06T19:09:48;3.75;;;1.33;;
80677;SDS011;70042;52.494;5.502;2023-08-06T19:12:14;4.57;;;1.52;;
80677;SDS011;70042;52.494;5.502;2023-08-06T19:14:40;2.88;;;1.13;;
80677;SDS011;70042;52.494;5.502;2023-08-06T19:17:06;4.25;;;1.38;;
80677;SDS011;70042;52.494;5.502;2023-08-06T19:19:31;4.13;;;1.20;;
80677;SDS011;70042;52.494;5.502;2023-08-06T19:21:57;4.43;;;1.15;;
80677;SDS011;70042;52.494;5.502;2023-08-06T19:26:48;3.13;;;1.17;;
80677;SDS011;70042;52.494;5.502;2023-08-06T19:29:13;4.00;;;1.35;;
80677;SDS011;70042;52.494;5.502;2023-08-06T19:34:04;5.32;;;1.33;;
80677;SDS011;70042;52.494;5.502;2023-08-06T19:36:30;4.13;;;1.40;;
80677;SDS011;70042;52.494;5.502;2023-08-06T19:38:55;5.40;;;1.10;;
80677;SDS011;70042;52.494;5.502;2023-08-06T19:41:21;4.07;;;0.93;;
80677;SDS011;70042;52.494;5.502;2023-08-06T19:43:46;2.88;;;1.17;;
80677;SDS011;70042;52.494;5.502;2023-08-06T19:46:12;3.55;;;1.38;;
80677;SDS011;70042;52.494;5.502;2023-08-06T19:48:37;4.55;;;1.40;;
80677;SDS011;70042;52.494;5.502;2023-08-06T19:51:03;2.88;;;0.98;;
80677;SDS011;70042;52.494;5.502;2023-08-06T19:53:29;3.40;;;1.05;;
80677;SDS011;70042;52.494;5.502;2023-08-06T19:55:59;2.58;;;1.02;;
80677;SDS011;70042;52.494;5.502;2023-08-06T19:58:26;3.08;;;1.08;;
80677;SDS011;70042;52.494;5.502;2023-08-06T20:00:53;5.28;;;1.08;;
80677;SDS011;70042;52.494;5.502;2023-08-06T20:03:20;2.47;;;0.90;;
80677;SDS011;70042;52.494;5.502;2023-08-06T20:05:45;5.50;;;1.30;;
80677;SDS011;70042;52.494;5.502;2023-08-06T20:08:10;3.70;;;1.05;;
80677;SDS011;70042;52.494;5.502;2023-08-06T20:13:01;1.50;;;0.80;;
80677;SDS011;70042;52.494;5.502;2023-08-06T20:17:55;4.45;;;1.00;;
80677;SDS011;70042;52.494;5.502;2023-08-06T20:20:21;3.47;;;0.90;;
80677;SDS011;70042;52.494;5.502;2023-08-06T20:22:46;2.80;;;1.15;;
80677;SDS011;70042;52.494;5.502;2023-08-06T20:27:37;2.30;;;0.90;;
80677;SDS011;70042;52.494;5.502;2023-08-06T20:32:28;1.05;;;0.55;;
80677;SDS011;70042;52.494;5.502;2023-08-06T20:37:18;2.70;;;0.83;;
80677;SDS011;70042;52.494;5.502;2023-08-06T20:42:09;3.63;;;0.80;;
80677;SDS011;70042;52.494;5.502;2023-08-06T20:44:35;2.10;;;0.65;;
80677;SDS011;70042;52.494;5.502;2023-08-06T20:47:02;2.88;;;0.90;;
80677;SDS011;70042;52.494;5.502;2023-08-06T20:49:28;6.45;;;1.00;;
80677;SDS011;70042;52.494;5.502;2023-08-06T20:51:54;2.97;;;0.90;;